sensor_id;sensor_type;location;lat;lon;timestamp;P1;durP1;ratioP1;P2;durP2;ratioP2
67140;SDS011;54058;52.010;5.546;2023-07-13T00:02:14;5.13;;;1.63;;
67140;SDS011;54058;52.010;5.546;2023-07-13T00:04:40;7.97;;;1.38;;
67140;SDS011;54058;52.010;5.546;2023-07-13T00:07:06;4.30;;;1.20;;
67140;SDS011;54058;52.010;5.546;2023-07-13T00:09:33;10.70;;;1.52;;
67140;SDS011;54058;52.010;5.546;2023-07-13T00:11:59;14.32;;;2.08;;
67140;SDS011;54058;52.010;5.546;2023-07-13T00:14:25;3.83;;;1.40;;
67140;SDS011;54058;52.010;5.546;2023-07-13T00:16:52;7.95;;;1.73;;
67140;SDS011;54058;52.010;5.546;2023-07-13T00:19:18;7.65;;;1.27;;
67140;SDS011;54058;52.010;5.546;2023-07-13T00:21:44;3.30;;;1.27;;
67140;SDS011;54058;52.010;5.546;2023-07-13T00:24:11;5.33;;;1.37;;
67140;SDS011;54058;52.010;5.546;2023-07-13T00:26:38;4.93;;;1.25;;
67140;SDS011;54058;52.010;5.546;2023-07-13T00:29:04;2.88;;;1.08;;
67140;SDS011;54058;52.010;5.546;2023-07-13T00:31:33;6.07;;;1.45;;
67140;SDS011;54058;52.010;5.546;2023-07-13T00:33:59;5.03;;;1.52;;
67140;SDS011;54058;52.010;5.546;2023-07-13T00:36:25;6.83;;;1.30;;
67140;SDS011;54058;52.010;5.546;2023-07-13T00:38:51;7.43;;;1.38;;
67140;SDS011;54058;52.010;5.546;2023-07-13T00:41:18;7.22;;;1.38;;
67140;SDS011;54058;52.010;5.546;2023-07-13T00:43:44;11.13;;;1.37;;
67140;SDS011;54058;52.010;5.546;2023-07-13T00:46:14;5.07;;;1.38;;
67140;SDS011;54058;52.010;5.546;2023-07-13T00:48:50;7.57;;;1.33;;
67140;SDS011;54058;52.010;5.546;2023-07-13T00:51:19;4.25;;;1.50;;
67140;SDS011;54058;52.010;5.546;2023-07-13T00:53:49;9.25;;;1.17;;
67140;SDS011;54058;52.010;5.546;2023-07-13T00:56:18;5.75;;;1.20;;
67140;SDS011;54058;52.010;5.546;2023-07-13T00:58:43;4.97;;;1.70;;
67140;SDS011;54058;52.010;5.546;2023-07-13T01:01:10;3.33;;;1.30;;
67140;SDS011;54058;52.010;5.546;2023-07-13T01:03:37;4.40;;;1.42;;
67140;SDS011;54058;52.010;5.546;2023-07-13T01:06:06;4.72;;;1.10;;
67140;SDS011;54058;52.010;5.546;2023-07-13T01:08:32;6.53;;;1.42;;
67140;SDS011;54058;52.010;5.546;2023-07-13T01:10:58;5.38;;;1.35;;
67140;SDS011;54058;52.010;5.546;2023-07-13T01:13:23;4.18;;;1.55;;
67140;SDS011;54058;52.010;5.546;2023-07-13T01:15:50;5.82;;;1.60;;
67140;SDS011;54058;52.010;5.546;2023-07-13T01:18:18;3.67;;;0.98;;
67140;SDS011;54058;52.010;5.546;2023-07-13T01:20:54;8.00;;;1.75;;
67140;SDS011;54058;52.010;5.546;2023-07-13T01:23:22;6.88;;;1.30;;
67140;SDS011;54058;52.010;5.546;2023-07-13T01:25:50;6.13;;;1.40;;
67140;SDS011;54058;52.010;5.546;2023-07-13T01:28:17;6.05;;;1.38;;
67140;SDS011;54058;52.010;5.546;2023-07-13T01:30:43;2.22;;;1.00;;
67140;SDS011;54058;52.010;5.546;2023-07-13T01:33:11;6.60;;;1.63;;
67140;SDS011;54058;52.010;5.546;2023-07-13T01:35:38;3.60;;;1.20;;
67140;SDS011;54058;52.010;5.546;2023-07-13T01:38:04;8.32;;;1.15;;
67140;SDS011;54058;52.010;5.546;2023-07-13T01:40:30;4.22;;;1.27;;
67140;SDS011;54058;52.010;5.546;2023-07-13T01:42:57;4.90;;;1.43;;
67140;SDS011;54058;52.010;5.546;2023-07-13T01:45:23;4.50;;;1.30;;
67140;SDS011;54058;52.010;5.546;2023-07-13T01:47:49;5.88;;;1.33;;
67140;SDS011;54058;52.010;5.546;2023-07-13T01:50:15;6.25;;;1.20;;
67140;SDS011;54058;52.010;5.546;2023-07-13T01:52:40;5.30;;;1.30;;
67140;SDS011;54058;52.010;5.546;2023-07-13T01:55:07;2.20;;;1.10;;
67140;SDS011;54058;52.010;5.546;2023-07-13T01:57:33;3.78;;;1.75;;
67140;SDS011;54058;52.010;5.546;2023-07-13T01:59:59;4.80;;;1.30;;
67140;SDS011;54058;52.010;5.546;2023-07-13T02:02:24;3.10;;;1.33;;
67140;SDS011;54058;52.010;5.546;2023-07-13T02:04:50;9.82;;;1.58;;
67140;SDS011;54058;52.010;5.546;2023-07-13T02:07:15;7.13;;;1.42;;
67140;SDS011;54058;52.010;5.546;2023-07-13T02:09:41;5.30;;;1.25;;
67140;SDS011;54058;52.010;5.546;2023-07-13T02:12:07;6.00;;;1.15;;
67140;SDS011;54058;52.010;5.546;2023-07-13T02:14:33;5.22;;;1.42;;
67140;SDS011;54058;52.010;5.546;2023-07-13T02:16:59;6.05;;;1.35;;
67140;SDS011;54058;52.010;5.546;2023-07-13T02:19:25;7.93;;;1.52;;
67140;SDS011;54058;52.010;5.546;2023-07-13T02:21:51;3.05;;;1.50;;
67140;SDS011;54058;52.010;5.546;2023-07-13T02:24:17;4.88;;;1.70;;
67140;SDS011;54058;52.010;5.546;2023-07-13T02:26:44;9.23;;;2.00;;
67140;SDS011;54058;52.010;5.546;2023-07-13T02:29:10;13.48;;;1.95;;
67140;SDS011;54058;52.010;5.546;2023-07-13T02:31:36;4.82;;;1.27;;
67140;SDS011;54058;52.010;5.546;2023-07-13T02:34:02;7.50;;;1.15;;
67140;SDS011;54058;52.010;5.546;2023-07-13T02:36:32;7.65;;;1.55;;
67140;SDS011;54058;52.010;5.546;2023-07-13T02:39:00;5.72;;;1.15;;
67140;SDS011;54058;52.010;5.546;2023-07-13T02:41:27;6.47;;;1.25;;
67140;SDS011;54058;52.010;5.546;2023-07-13T02:43:53;4.38;;;1.33;;
67140;SDS011;54058;52.010;5.546;2023-07-13T02:46:35;5.38;;;1.55;;
67140;SDS011;54058;52.010;5.546;2023-07-13T02:49:03;7.93;;;2.15;;
67140;SDS011;54058;52.010;5.546;2023-07-13T02:51:29;4.28;;;1.40;;
67140;SDS011;54058;52.010;5.546;2023-07-13T02:53:55;5.63;;;1.52;;
67140;SDS011;54058;52.010;5.546;2023-07-13T02:56:25;18.13;;;1.98;;
67140;SDS011;54058;52.010;5.546;2023-07-13T02:58:52;11.65;;;2.17;;
67140;SDS011;54058;52.010;5.546;2023-07-13T03:01:19;6.32;;;1.38;;
67140;SDS011;54058;52.010;5.546;2023-07-13T03:03:46;5.95;;;1.70;;
67140;SDS011;54058;52.010;5.546;2023-07-13T03:06:12;7.15;;;1.42;;
67140;SDS011;54058;52.010;5.546;2023-07-13T03:08:38;5.25;;;1.33;;
67140;SDS011;54058;52.010;5.546;2023-07-13T03:11:09;7.03;;;1.83;;
67140;SDS011;54058;52.010;5.546;2023-07-13T03:13:37;6.15;;;1.77;;
67140;SDS011;54058;52.010;5.546;2023-07-13T03:16:04;7.85;;;1.90;;
67140;SDS011;54058;52.010;5.546;2023-07-13T03:18:30;6.82;;;1.95;;
67140;SDS011;54058;52.010;5.546;2023-07-13T03:20:56;5.95;;;1.73;;
67140;SDS011;54058;52.010;5.546;2023-07-13T03:23:22;5.63;;;2.05;;
67140;SDS011;54058;52.010;5.546;2023-07-13T03:25:48;6.53;;;1.98;;
67140;SDS011;54058;52.010;5.546;2023-07-13T03:28:14;13.40;;;1.85;;
67140;SDS011;54058;52.010;5.546;2023-07-13T03:30:40;6.05;;;1.90;;
67140;SDS011;54058;52.010;5.546;2023-07-13T03:33:06;4.47;;;1.52;;
67140;SDS011;54058;52.010;5.546;2023-07-13T03:35:33;5.72;;;1.60;;
67140;SDS011;54058;52.010;5.546;2023-07-13T03:37:59;6.10;;;1.42;;
67140;SDS011;54058;52.010;5.546;2023-07-13T03:40:26;6.50;;;1.70;;
67140;SDS011;54058;52.010;5.546;2023-07-13T03:42:52;5.07;;;1.63;;
67140;SDS011;54058;52.010;5.546;2023-07-13T03:45:18;10.48;;;1.92;;
67140;SDS011;54058;52.010;5.546;2023-07-13T03:47:44;6.57;;;1.90;;
67140;SDS011;54058;52.010;5.546;2023-07-13T03:50:10;6.80;;;1.80;;
67140;SDS011;54058;52.010;5.546;2023-07-13T03:52:36;6.05;;;1.77;;
67140;SDS011;54058;52.010;5.546;2023-07-13T03:55:01;4.97;;;1.40;;
67140;SDS011;54058;52.010;5.546;2023-07-13T03:57:27;6.82;;;2.08;;
67140;SDS011;54058;52.010;5.546;2023-07-13T03:59:53;8.45;;;2.08;;
67140;SDS011;54058;52.010;5.546;2023-07-13T04:02:18;11.00;;;2.13;;
67140;SDS011;54058;52.010;5.546;2023-07-13T04:04:44;6.97;;;1.70;;
67140;SDS011;54058;52.010;5.546;2023-07-13T04:07:10;9.50;;;2.28;;
67140;SDS011;54058;52.010;5.546;2023-07-13T04:09:35;8.48;;;1.90;;
67140;SDS011;54058;52.010;5.546;2023-07-13T04:12:01;7.88;;;2.55;;
67140;SDS011;54058;52.010;5.546;2023-07-13T04:14:27;5.00;;;1.92;;
67140;SDS011;54058;52.010;5.546;2023-07-13T04:16:53;7.03;;;2.33;;
67140;SDS011;54058;52.010;5.546;2023-07-13T04:19:19;8.45;;;2.33;;
67140;SDS011;54058;52.010;5.546;2023-07-13T04:21:45;10.00;;;2.10;;
67140;SDS011;54058;52.010;5.546;2023-07-13T04:24:11;7.93;;;2.40;;
67140;SDS011;54058;52.010;5.546;2023-07-13T04:26:37;9.45;;;2.58;;
67140;SDS011;54058;52.010;5.546;2023-07-13T04:29:04;10.35;;;2.42;;
67140;SDS011;54058;52.010;5.546;2023-07-13T04:31:32;10.10;;;2.25;;
67140;SDS011;54058;52.010;5.546;2023-07-13T04:34:01;7.25;;;2.08;;
67140;SDS011;54058;52.010;5.546;2023-07-13T04:36:28;9.98;;;2.55;;
67140;SDS011;54058;52.010;5.546;2023-07-13T04:38:53;5.88;;;2.10;;
67140;SDS011;54058;52.010;5.546;2023-07-13T04:41:20;7.13;;;2.23;;
67140;SDS011;54058;52.010;5.546;2023-07-13T04:46:13;14.55;;;2.30;;
67140;SDS011;54058;52.010;5.546;2023-07-13T04:48:40;8.25;;;2.35;;
67140;SDS011;54058;52.010;5.546;2023-07-13T04:51:06;6.80;;;2.45;;
67140;SDS011;54058;52.010;5.546;2023-07-13T04:53:32;13.23;;;2.70;;
67140;SDS011;54058;52.010;5.546;2023-07-13T04:55:59;5.88;;;2.30;;
67140;SDS011;54058;52.010;5.546;2023-07-13T04:58:25;9.43;;;1.93;;
67140;SDS011;54058;52.010;5.546;2023-07-13T05:00:50;11.40;;;2.83;;
67140;SDS011;54058;52.010;5.546;2023-07-13T05:03:17;11.35;;;3.08;;
67140;SDS011;54058;52.010;5.546;2023-07-13T05:05:42;8.13;;;2.70;;
67140;SDS011;54058;52.010;5.546;2023-07-13T05:08:08;11.07;;;3.07;;
67140;SDS011;54058;52.010;5.546;2023-07-13T05:10:34;10.07;;;2.57;;
67140;SDS011;54058;52.010;5.546;2023-07-13T05:13:00;6.53;;;2.40;;
67140;SDS011;54058;52.010;5.546;2023-07-13T05:15:26;13.00;;;2.70;;
67140;SDS011;54058;52.010;5.546;2023-07-13T05:17:52;7.43;;;2.50;;
67140;SDS011;54058;52.010;5.546;2023-07-13T05:20:18;9.83;;;3.50;;
67140;SDS011;54058;52.010;5.546;2023-07-13T05:22:44;11.95;;;3.08;;
67140;SDS011;54058;52.010;5.546;2023-07-13T05:25:11;9.73;;;2.67;;
67140;SDS011;54058;52.010;5.546;2023-07-13T05:27:38;13.53;;;3.27;;
67140;SDS011;54058;52.010;5.546;2023-07-13T05:30:04;9.93;;;2.53;;
67140;SDS011;54058;52.010;5.546;2023-07-13T05:32:30;14.68;;;2.95;;
67140;SDS011;54058;52.010;5.546;2023-07-13T05:34:56;14.60;;;4.07;;
67140;SDS011;54058;52.010;5.546;2023-07-13T05:37:21;13.43;;;3.60;;
67140;SDS011;54058;52.010;5.546;2023-07-13T05:39:47;13.97;;;3.10;;
67140;SDS011;54058;52.010;5.546;2023-07-13T05:42:13;13.33;;;3.23;;
67140;SDS011;54058;52.010;5.546;2023-07-13T05:44:38;16.97;;;4.17;;
67140;SDS011;54058;52.010;5.546;2023-07-13T05:47:05;15.32;;;4.32;;
67140;SDS011;54058;52.010;5.546;2023-07-13T05:49:31;9.03;;;3.23;;
67140;SDS011;54058;52.010;5.546;2023-07-13T05:51:57;16.17;;;3.27;;
67140;SDS011;54058;52.010;5.546;2023-07-13T05:54:22;16.93;;;4.50;;
67140;SDS011;54058;52.010;5.546;2023-07-13T05:56:48;13.23;;;3.97;;
67140;SDS011;54058;52.010;5.546;2023-07-13T05:59:13;12.53;;;3.47;;
67140;SDS011;54058;52.010;5.546;2023-07-13T06:01:39;16.03;;;4.27;;
67140;SDS011;54058;52.010;5.546;2023-07-13T06:04:06;12.75;;;4.47;;
67140;SDS011;54058;52.010;5.546;2023-07-13T06:06:32;19.93;;;4.87;;
67140;SDS011;54058;52.010;5.546;2023-07-13T06:08:58;16.50;;;4.57;;
67140;SDS011;54058;52.010;5.546;2023-07-13T06:11:24;15.17;;;4.23;;
67140;SDS011;54058;52.010;5.546;2023-07-13T06:13:52;12.52;;;3.85;;
67140;SDS011;54058;52.010;5.546;2023-07-13T06:16:19;17.45;;;4.72;;
67140;SDS011;54058;52.010;5.546;2023-07-13T06:18:45;20.42;;;5.63;;
67140;SDS011;54058;52.010;5.546;2023-07-13T06:21:15;18.03;;;5.27;;
67140;SDS011;54058;52.010;5.546;2023-07-13T06:23:42;17.67;;;5.35;;
67140;SDS011;54058;52.010;5.546;2023-07-13T06:26:09;17.35;;;5.60;;
67140;SDS011;54058;52.010;5.546;2023-07-13T06:28:36;14.65;;;5.20;;
67140;SDS011;54058;52.010;5.546;2023-07-13T06:33:30;11.95;;;4.63;;
67140;SDS011;54058;52.010;5.546;2023-07-13T06:35:55;16.10;;;6.27;;
67140;SDS011;54058;52.010;5.546;2023-07-13T06:38:21;17.77;;;6.57;;
67140;SDS011;54058;52.010;5.546;2023-07-13T06:40:47;19.00;;;6.17;;
67140;SDS011;54058;52.010;5.546;2023-07-13T06:43:12;15.17;;;5.20;;
67140;SDS011;54058;52.010;5.546;2023-07-13T06:45:43;20.33;;;5.10;;
67140;SDS011;54058;52.010;5.546;2023-07-13T06:48:12;18.58;;;5.35;;
67140;SDS011;54058;52.010;5.546;2023-07-13T06:50:38;17.10;;;6.45;;
67140;SDS011;54058;52.010;5.546;2023-07-13T06:53:04;18.00;;;6.20;;
67140;SDS011;54058;52.010;5.546;2023-07-13T06:55:30;20.63;;;5.57;;
67140;SDS011;54058;52.010;5.546;2023-07-13T06:57:55;18.80;;;6.13;;
67140;SDS011;54058;52.010;5.546;2023-07-13T07:00:22;14.15;;;5.78;;
67140;SDS011;54058;52.010;5.546;2023-07-13T07:02:48;20.53;;;5.83;;
67140;SDS011;54058;52.010;5.546;2023-07-13T07:05:13;15.83;;;5.53;;
67140;SDS011;54058;52.010;5.546;2023-07-13T07:07:39;14.73;;;5.63;;
67140;SDS011;54058;52.010;5.546;2023-07-13T07:10:04;19.67;;;6.37;;
67140;SDS011;54058;52.010;5.546;2023-07-13T07:12:30;14.65;;;5.55;;
67140;SDS011;54058;52.010;5.546;2023-07-13T07:14:56;15.07;;;5.43;;
67140;SDS011;54058;52.010;5.546;2023-07-13T07:17:22;14.07;;;5.30;;
67140;SDS011;54058;52.010;5.546;2023-07-13T07:19:48;14.63;;;6.07;;
67140;SDS011;54058;52.010;5.546;2023-07-13T07:22:14;16.87;;;6.63;;
67140;SDS011;54058;52.010;5.546;2023-07-13T07:24:39;15.63;;;6.07;;
67140;SDS011;54058;52.010;5.546;2023-07-13T07:27:05;16.60;;;5.53;;
67140;SDS011;54058;52.010;5.546;2023-07-13T07:29:31;18.33;;;6.10;;
67140;SDS011;54058;52.010;5.546;2023-07-13T07:31:56;22.27;;;6.50;;
67140;SDS011;54058;52.010;5.546;2023-07-13T07:34:24;19.92;;;6.03;;
67140;SDS011;54058;52.010;5.546;2023-07-13T07:36:50;14.80;;;6.43;;
67140;SDS011;54058;52.010;5.546;2023-07-13T07:39:15;10.93;;;4.63;;
67140;SDS011;54058;52.010;5.546;2023-07-13T07:41:41;15.10;;;6.27;;
67140;SDS011;54058;52.010;5.546;2023-07-13T07:44:07;13.07;;;5.13;;
67140;SDS011;54058;52.010;5.546;2023-07-13T07:46:34;16.50;;;5.80;;
67140;SDS011;54058;52.010;5.546;2023-07-13T07:49:00;18.20;;;4.90;;
67140;SDS011;54058;52.010;5.546;2023-07-13T07:51:26;16.87;;;6.07;;
67140;SDS011;54058;52.010;5.546;2023-07-13T07:53:51;13.80;;;4.97;;
67140;SDS011;54058;52.010;5.546;2023-07-13T07:56:17;16.83;;;6.03;;
67140;SDS011;54058;52.010;5.546;2023-07-13T07:58:43;11.65;;;6.25;;
67140;SDS011;54058;52.010;5.546;2023-07-13T08:01:09;11.68;;;4.68;;
67140;SDS011;54058;52.010;5.546;2023-07-13T08:03:35;12.47;;;5.03;;
67140;SDS011;54058;52.010;5.546;2023-07-13T08:06:01;11.30;;;4.60;;
67140;SDS011;54058;52.010;5.546;2023-07-13T08:08:26;12.87;;;4.97;;
67140;SDS011;54058;52.010;5.546;2023-07-13T08:10:52;13.25;;;4.30;;
67140;SDS011;54058;52.010;5.546;2023-07-13T08:13:18;18.10;;;5.13;;
67140;SDS011;54058;52.010;5.546;2023-07-13T08:15:44;12.37;;;4.57;;
67140;SDS011;54058;52.010;5.546;2023-07-13T08:18:10;11.13;;;4.82;;
67140;SDS011;54058;52.010;5.546;2023-07-13T08:20:37;14.63;;;5.27;;
67140;SDS011;54058;52.010;5.546;2023-07-13T08:23:03;13.65;;;4.50;;
67140;SDS011;54058;52.010;5.546;2023-07-13T08:25:29;11.93;;;4.72;;
67140;SDS011;54058;52.010;5.546;2023-07-13T08:27:55;9.87;;;4.23;;
67140;SDS011;54058;52.010;5.546;2023-07-13T08:30:20;11.87;;;4.43;;
67140;SDS011;54058;52.010;5.546;2023-07-13T08:32:46;11.03;;;3.97;;
67140;SDS011;54058;52.010;5.546;2023-07-13T08:35:12;17.17;;;5.23;;
67140;SDS011;54058;52.010;5.546;2023-07-13T08:37:38;9.05;;;3.20;;
67140;SDS011;54058;52.010;5.546;2023-07-13T08:40:04;10.27;;;3.53;;
67140;SDS011;54058;52.010;5.546;2023-07-13T08:45:12;8.88;;;2.80;;
67140;SDS011;54058;52.010;5.546;2023-07-13T08:47:39;8.02;;;2.75;;
67140;SDS011;54058;52.010;5.546;2023-07-13T08:50:14;10.23;;;3.28;;
67140;SDS011;54058;52.010;5.546;2023-07-13T08:52:43;7.45;;;2.33;;
67140;SDS011;54058;52.010;5.546;2023-07-13T08:55:14;3.83;;;1.85;;
67140;SDS011;54058;52.010;5.546;2023-07-13T08:58:03;4.80;;;1.83;;
67140;SDS011;54058;52.010;5.546;2023-07-13T09:01:03;8.15;;;2.50;;
67140;SDS011;54058;52.010;5.546;2023-07-13T09:03:54;5.95;;;2.45;;
67140;SDS011;54058;52.010;5.546;2023-07-13T09:06:40;5.35;;;2.00;;
67140;SDS011;54058;52.010;5.546;2023-07-13T09:09:36;7.97;;;2.70;;
67140;SDS011;54058;52.010;5.546;2023-07-13T09:15:26;7.90;;;2.67;;
67140;SDS011;54058;52.010;5.546;2023-07-13T09:17:59;7.22;;;2.63;;
67140;SDS011;54058;52.010;5.546;2023-07-13T09:20:50;8.50;;;2.65;;
67140;SDS011;54058;52.010;5.546;2023-07-13T09:23:21;7.40;;;3.63;;
67140;SDS011;54058;52.010;5.546;2023-07-13T09:25:49;5.90;;;2.53;;
67140;SDS011;54058;52.010;5.546;2023-07-13T09:28:28;6.88;;;2.60;;
67140;SDS011;54058;52.010;5.546;2023-07-13T09:31:06;7.93;;;2.30;;
67140;SDS011;54058;52.010;5.546;2023-07-13T09:33:37;10.50;;;2.40;;
67140;SDS011;54058;52.010;5.546;2023-07-13T09:36:15;8.02;;;2.33;;
67140;SDS011;54058;52.010;5.546;2023-07-13T09:39:14;7.65;;;3.05;;
67140;SDS011;54058;52.010;5.546;2023-07-13T09:41:58;10.70;;;3.17;;
67140;SDS011;54058;52.010;5.546;2023-07-13T09:47:17;8.38;;;3.17;;
67140;SDS011;54058;52.010;5.546;2023-07-13T09:50:04;7.65;;;2.60;;
67140;SDS011;54058;52.010;5.546;2023-07-13T09:52:42;7.78;;;3.03;;
67140;SDS011;54058;52.010;5.546;2023-07-13T09:55:22;10.65;;;2.40;;
67140;SDS011;54058;52.010;5.546;2023-07-13T09:57:50;6.97;;;2.67;;
67140;SDS011;54058;52.010;5.546;2023-07-13T10:00:24;6.40;;;2.53;;
67140;SDS011;54058;52.010;5.546;2023-07-13T10:02:57;7.90;;;2.67;;
67140;SDS011;54058;52.010;5.546;2023-07-13T10:05:36;6.95;;;2.75;;
67140;SDS011;54058;52.010;5.546;2023-07-13T10:08:04;9.93;;;2.97;;
67140;SDS011;54058;52.010;5.546;2023-07-13T10:10:32;6.28;;;2.33;;
67140;SDS011;54058;52.010;5.546;2023-07-13T10:12:58;7.80;;;2.25;;
67140;SDS011;54058;52.010;5.546;2023-07-13T10:15:24;7.47;;;2.83;;
67140;SDS011;54058;52.010;5.546;2023-07-13T10:17:51;9.00;;;2.72;;
67140;SDS011;54058;52.010;5.546;2023-07-13T10:20:20;8.32;;;2.30;;
67140;SDS011;54058;52.010;5.546;2023-07-13T10:25:27;8.18;;;2.35;;
67140;SDS011;54058;52.010;5.546;2023-07-13T10:28:17;11.98;;;3.17;;
67140;SDS011;54058;52.010;5.546;2023-07-13T10:30:56;7.47;;;2.33;;
67140;SDS011;54058;52.010;5.546;2023-07-13T10:33:25;8.57;;;2.63;;
67140;SDS011;54058;52.010;5.546;2023-07-13T10:35:54;11.35;;;2.22;;
67140;SDS011;54058;52.010;5.546;2023-07-13T10:38:26;4.88;;;1.75;;
67140;SDS011;54058;52.010;5.546;2023-07-13T10:43:36;7.40;;;1.70;;
67140;SDS011;54058;52.010;5.546;2023-07-13T10:46:07;3.72;;;1.65;;
67140;SDS011;54058;52.010;5.546;2023-07-13T10:48:35;4.63;;;1.67;;
67140;SDS011;54058;52.010;5.546;2023-07-13T10:51:02;10.90;;;2.05;;
67140;SDS011;54058;52.010;5.546;2023-07-13T10:53:35;3.83;;;1.80;;
67140;SDS011;54058;52.010;5.546;2023-07-13T10:56:03;6.15;;;2.50;;
67140;SDS011;54058;52.010;5.546;2023-07-13T10:58:37;5.97;;;2.13;;
67140;SDS011;54058;52.010;5.546;2023-07-13T11:06:10;4.68;;;2.15;;
67140;SDS011;54058;52.010;5.546;2023-07-13T11:08:55;4.60;;;2.25;;
67140;SDS011;54058;52.010;5.546;2023-07-13T11:18:48;3.20;;;1.70;;
67140;SDS011;54058;52.010;5.546;2023-07-13T11:27:11;5.30;;;1.52;;
67140;SDS011;54058;52.010;5.546;2023-07-13T11:31:57;6.55;;;1.85;;
67140;SDS011;54058;52.010;5.546;2023-07-13T11:34:35;3.63;;;1.80;;
67140;SDS011;54058;52.010;5.546;2023-07-13T11:37:03;5.63;;;1.80;;
67140;SDS011;54058;52.010;5.546;2023-07-13T11:39:30;6.15;;;2.00;;
67140;SDS011;54058;52.010;5.546;2023-07-13T11:41:58;7.47;;;1.90;;
67140;SDS011;54058;52.010;5.546;2023-07-13T11:44:28;4.35;;;1.65;;
67140;SDS011;54058;52.010;5.546;2023-07-13T11:46:56;4.50;;;1.60;;
67140;SDS011;54058;52.010;5.546;2023-07-13T11:49:26;5.47;;;1.88;;
67140;SDS011;54058;52.010;5.546;2023-07-13T11:51:54;4.82;;;1.35;;
67140;SDS011;54058;52.010;5.546;2023-07-13T11:54:28;5.38;;;1.70;;
67140;SDS011;54058;52.010;5.546;2023-07-13T11:56:57;2.45;;;1.40;;
67140;SDS011;54058;52.010;5.546;2023-07-13T11:59:31;6.28;;;1.90;;
67140;SDS011;54058;52.010;5.546;2023-07-13T12:01:58;3.38;;;1.63;;
67140;SDS011;54058;52.010;5.546;2023-07-13T12:04:25;4.82;;;2.22;;
67140;SDS011;54058;52.010;5.546;2023-07-13T12:07:17;5.70;;;2.42;;
67140;SDS011;54058;52.010;5.546;2023-07-13T12:09:43;5.30;;;2.00;;
67140;SDS011;54058;52.010;5.546;2023-07-13T12:12:12;2.65;;;1.60;;
67140;SDS011;54058;52.010;5.546;2023-07-13T12:14:39;4.10;;;2.00;;
67140;SDS011;54058;52.010;5.546;2023-07-13T12:17:09;3.95;;;1.67;;
67140;SDS011;54058;52.010;5.546;2023-07-13T12:19:43;2.78;;;1.52;;
67140;SDS011;54058;52.010;5.546;2023-07-13T12:22:09;3.40;;;1.70;;
67140;SDS011;54058;52.010;5.546;2023-07-13T12:24:37;4.00;;;1.55;;
67140;SDS011;54058;52.010;5.546;2023-07-13T12:27:05;7.18;;;1.60;;
67140;SDS011;54058;52.010;5.546;2023-07-13T12:29:32;5.50;;;1.95;;
67140;SDS011;54058;52.010;5.546;2023-07-13T12:34:24;3.60;;;1.55;;
67140;SDS011;54058;52.010;5.546;2023-07-13T12:37:01;5.75;;;1.50;;
67140;SDS011;54058;52.010;5.546;2023-07-13T12:45:00;2.58;;;1.73;;
67140;SDS011;54058;52.010;5.546;2023-07-13T12:47:28;3.47;;;1.63;;
67140;SDS011;54058;52.010;5.546;2023-07-13T12:49:55;4.93;;;1.80;;
67140;SDS011;54058;52.010;5.546;2023-07-13T12:52:24;2.58;;;1.85;;
67140;SDS011;54058;52.010;5.546;2023-07-13T12:55:04;2.25;;;1.40;;
67140;SDS011;54058;52.010;5.546;2023-07-13T12:57:40;4.53;;;1.65;;
67140;SDS011;54058;52.010;5.546;2023-07-13T13:00:24;3.05;;;1.75;;
67140;SDS011;54058;52.010;5.546;2023-07-13T13:02:52;6.53;;;1.77;;
67140;SDS011;54058;52.010;5.546;2023-07-13T13:05:22;2.60;;;1.50;;
67140;SDS011;54058;52.010;5.546;2023-07-13T13:07:51;6.65;;;1.70;;
67140;SDS011;54058;52.010;5.546;2023-07-13T13:10:17;2.47;;;1.38;;
67140;SDS011;54058;52.010;5.546;2023-07-13T13:12:43;4.13;;;1.55;;
67140;SDS011;54058;52.010;5.546;2023-07-13T13:15:09;6.33;;;1.80;;
67140;SDS011;54058;52.010;5.546;2023-07-13T13:17:36;2.95;;;1.75;;
67140;SDS011;54058;52.010;5.546;2023-07-13T13:20:11;13.05;;;1.80;;
67140;SDS011;54058;52.010;5.546;2023-07-13T13:22:39;3.90;;;1.60;;
67140;SDS011;54058;52.010;5.546;2023-07-13T13:25:05;5.03;;;1.90;;
67140;SDS011;54058;52.010;5.546;2023-07-13T13:27:33;3.03;;;1.65;;
67140;SDS011;54058;52.010;5.546;2023-07-13T13:29:59;4.13;;;1.67;;
67140;SDS011;54058;52.010;5.546;2023-07-13T13:32:25;3.42;;;1.58;;
67140;SDS011;54058;52.010;5.546;2023-07-13T13:34:51;4.15;;;1.70;;
67140;SDS011;54058;52.010;5.546;2023-07-13T13:37:21;3.65;;;1.83;;
67140;SDS011;54058;52.010;5.546;2023-07-13T13:39:56;3.35;;;1.60;;
67140;SDS011;54058;52.010;5.546;2023-07-13T13:45:16;4.75;;;1.65;;
67140;SDS011;54058;52.010;5.546;2023-07-13T13:50:42;5.28;;;1.92;;
67140;SDS011;54058;52.010;5.546;2023-07-13T13:53:28;3.83;;;1.75;;
67140;SDS011;54058;52.010;5.546;2023-07-13T13:55:56;3.20;;;1.90;;
67140;SDS011;54058;52.010;5.546;2023-07-13T13:58:22;5.15;;;1.75;;
67140;SDS011;54058;52.010;5.546;2023-07-13T14:01:00;3.67;;;1.70;;
67140;SDS011;54058;52.010;5.546;2023-07-13T14:06:20;4.60;;;1.73;;
67140;SDS011;54058;52.010;5.546;2023-07-13T14:08:52;2.95;;;1.77;;
67140;SDS011;54058;52.010;5.546;2023-07-13T14:11:26;3.75;;;1.65;;
67140;SDS011;54058;52.010;5.546;2023-07-13T14:13:55;5.03;;;2.08;;
67140;SDS011;54058;52.010;5.546;2023-07-13T14:16:26;3.17;;;1.65;;
67140;SDS011;54058;52.010;5.546;2023-07-13T14:19:05;2.72;;;1.73;;
67140;SDS011;54058;52.010;5.546;2023-07-13T14:21:35;4.40;;;1.53;;
67140;SDS011;54058;52.010;5.546;2023-07-13T14:24:04;3.53;;;1.73;;
67140;SDS011;54058;52.010;5.546;2023-07-13T14:26:43;4.35;;;1.60;;
67140;SDS011;54058;52.010;5.546;2023-07-13T14:29:14;6.22;;;1.50;;
67140;SDS011;54058;52.010;5.546;2023-07-13T14:31:47;6.80;;;2.30;;
67140;SDS011;54058;52.010;5.546;2023-07-13T14:34:15;4.15;;;1.63;;
67140;SDS011;54058;52.010;5.546;2023-07-13T14:36:49;3.65;;;1.60;;
67140;SDS011;54058;52.010;5.546;2023-07-13T14:39:31;2.88;;;1.65;;
67140;SDS011;54058;52.010;5.546;2023-07-13T14:42:09;3.20;;;1.65;;
67140;SDS011;54058;52.010;5.546;2023-07-13T14:44:42;2.97;;;1.27;;
67140;SDS011;54058;52.010;5.546;2023-07-13T14:47:14;3.83;;;1.90;;
67140;SDS011;54058;52.010;5.546;2023-07-13T14:49:50;4.82;;;1.92;;
67140;SDS011;54058;52.010;5.546;2023-07-13T14:52:20;2.35;;;1.80;;
67140;SDS011;54058;52.010;5.546;2023-07-13T14:54:55;3.63;;;1.38;;
67140;SDS011;54058;52.010;5.546;2023-07-13T14:57:29;5.10;;;1.65;;
67140;SDS011;54058;52.010;5.546;2023-07-13T15:00:03;1.88;;;1.50;;
67140;SDS011;54058;52.010;5.546;2023-07-13T15:02:41;2.97;;;1.52;;
67140;SDS011;54058;52.010;5.546;2023-07-13T15:05:17;1.73;;;1.30;;
67140;SDS011;54058;52.010;5.546;2023-07-13T15:07:51;3.47;;;1.77;;
67140;SDS011;54058;52.010;5.546;2023-07-13T15:10:24;3.42;;;1.70;;
67140;SDS011;54058;52.010;5.546;2023-07-13T15:13:00;4.30;;;1.58;;
67140;SDS011;54058;52.010;5.546;2023-07-13T15:19:23;3.97;;;1.98;;
67140;SDS011;54058;52.010;5.546;2023-07-13T15:24:17;2.95;;;1.60;;
67140;SDS011;54058;52.010;5.546;2023-07-13T15:26:43;4.63;;;1.80;;
67140;SDS011;54058;52.010;5.546;2023-07-13T15:29:13;6.90;;;1.67;;
67140;SDS011;54058;52.010;5.546;2023-07-13T15:31:42;2.85;;;1.38;;
67140;SDS011;54058;52.010;5.546;2023-07-13T15:34:12;6.20;;;1.30;;
67140;SDS011;54058;52.010;5.546;2023-07-13T15:36:40;1.77;;;1.20;;
67140;SDS011;54058;52.010;5.546;2023-07-13T15:39:06;5.90;;;1.23;;
67140;SDS011;54058;52.010;5.546;2023-07-13T15:41:35;6.13;;;1.40;;
67140;SDS011;54058;52.010;5.546;2023-07-13T15:44:22;2.75;;;1.58;;
67140;SDS011;54058;52.010;5.546;2023-07-13T15:46:52;7.65;;;1.60;;
67140;SDS011;54058;52.010;5.546;2023-07-13T15:49:18;3.67;;;1.73;;
67140;SDS011;54058;52.010;5.546;2023-07-13T15:51:44;2.42;;;1.35;;
67140;SDS011;54058;52.010;5.546;2023-07-13T15:54:11;3.67;;;1.30;;
67140;SDS011;54058;52.010;5.546;2023-07-13T15:56:39;2.70;;;1.17;;